createdAt,value
2022-12-29T00:03:03.740Z,58.31
2022-12-29T00:08:10.147Z,58.75
2022-12-29T00:13:30.686Z,57.55
2022-12-29T00:18:32.651Z,57.78
2022-12-29T00:23:57.440Z,59.21
2022-12-29T00:29:18.286Z,60.71
2022-12-29T00:34:38.968Z,59.72
2022-12-29T00:40:00.972Z,56.63
2022-12-29T00:45:03.287Z,58.67
2022-12-29T00:50:05.661Z,59.07
2022-12-29T00:55:09.432Z,58.84
2022-12-29T01:00:11.812Z,57.84
2022-12-29T01:05:13.968Z,58.25
2022-12-29T01:10:17.274Z,57.88
2022-12-29T01:15:20.263Z,58.31
2022-12-29T01:20:22.289Z,59.77
2022-12-29T01:25:25.586Z,59.60
2022-12-29T01:30:27.523Z,59.26
2022-12-29T01:35:29.628Z,58.28
2022-12-29T01:40:33.099Z,57.79
2022-12-29T01:45:35.158Z,57.84
2022-12-29T01:50:42.644Z,56.62
2022-12-29T01:55:50.077Z,55.85
2022-12-29T02:00:52.170Z,56.31
2022-12-29T02:05:59.840Z,55.43
2022-12-29T02:11:03.867Z,56.26
2022-12-29T02:16:15.982Z,55.17
2022-12-29T02:21:42.766Z,58.04
2022-12-29T02:27:13.366Z,58.73
2022-12-29T02:32:26.000Z,58.62
2022-12-29T02:37:35.215Z,57.79
2022-12-29T02:42:44.747Z,56.87
2022-12-29T02:47:52.059Z,58.23
2022-12-29T02:52:58.454Z,58.76
2022-12-29T02:58:18.844Z,57.75
2022-12-29T03:03:34.082Z,58.82
2022-12-29T03:08:43.867Z,59.99
2022-12-29T03:14:09.190Z,59.84
2022-12-29T03:19:20.196Z,59.57
2022-12-29T03:24:26.500Z,59.55
2022-12-29T03:29:30.363Z,60.84
2022-12-29T03:34:35.835Z,59.37
2022-12-29T03:39:38.317Z,62.23
2022-12-29T03:44:42.605Z,60.22
2022-12-29T03:49:45.914Z,60.20
2022-12-29T03:54:48.158Z,59.48
2022-12-29T03:59:50.145Z,60.91
2022-12-29T04:04:53.769Z,60.36
2022-12-29T04:09:55.558Z,58.95
2022-12-29T04:14:57.525Z,59.42
2022-12-29T04:20:19.681Z,59.36
2022-12-29T04:25:21.842Z,58.76
2022-12-29T04:30:24.033Z,56.78
2022-12-29T04:35:27.309Z,58.98
2022-12-29T04:40:29.303Z,58.88
2022-12-29T04:45:31.244Z,59.97
2022-12-29T04:50:34.689Z,62.35
2022-12-29T04:55:36.674Z,60.72
2022-12-29T05:00:38.657Z,60.96
2022-12-29T05:05:41.944Z,61.80
2022-12-29T05:10:45.839Z,62.30
2022-12-29T05:15:50.597Z,60.78
2022-12-29T05:20:54.108Z,61.26
2022-12-29T05:25:56.072Z,61.52
2022-12-29T05:30:58.295Z,61.71
2022-12-29T05:36:06.088Z,60.57
2022-12-29T05:41:08.085Z,60.82
2022-12-29T05:46:10.228Z,60.37
2022-12-29T05:51:13.645Z,60.29
2022-12-29T05:56:16.692Z,60.56
2022-12-29T06:01:19.581Z,60.29
2022-12-29T06:06:23.064Z,60.44
2022-12-29T06:11:25.025Z,59.40
2022-12-29T06:16:27.062Z,60.47
2022-12-29T06:21:30.442Z,60.34
2022-12-29T06:26:32.549Z,60.63
2022-12-29T06:31:34.878Z,61.30
2022-12-29T06:36:38.289Z,60.36
2022-12-29T06:41:40.280Z,59.14
2022-12-29T06:46:42.244Z,59.81
2022-12-29T06:51:45.643Z,60.35
2022-12-29T06:56:47.609Z,58.62
2022-12-29T07:01:49.766Z,59.28
2022-12-29T07:06:53.141Z,60.67
2022-12-29T07:11:55.178Z,62.03
2022-12-29T07:16:57.239Z,62.23
2022-12-29T07:22:00.608Z,60.46
2022-12-29T07:27:02.601Z,62.77
2022-12-29T07:32:05.219Z,61.21
2022-12-29T07:37:08.644Z,62.07
2022-12-29T07:42:10.579Z,61.05
2022-12-29T07:47:12.556Z,61.97
2022-12-29T07:52:15.953Z,61.04
2022-12-29T07:57:17.928Z,61.22
2022-12-29T08:02:20.015Z,61.89
2022-12-29T08:07:23.471Z,61.41
2022-12-29T08:12:25.534Z,62.16
2022-12-29T08:17:27.507Z,61.41
2022-12-29T08:22:30.856Z,61.39
2022-12-29T08:27:32.791Z,62.49
2022-12-29T08:32:34.768Z,61.41
2022-12-29T08:37:38.226Z,61.89
2022-12-29T08:42:40.100Z,61.93
2022-12-29T08:47:42.078Z,62.23
2022-12-29T08:52:45.476Z,61.70
2022-12-29T08:57:47.647Z,61.89
2022-12-29T09:02:49.912Z,61.43
2022-12-29T09:07:53.419Z,63.29
2022-12-29T09:12:55.272Z,61.75
2022-12-29T09:17:57.340Z,63.61
2022-12-29T09:23:01.029Z,62.95
2022-12-29T09:28:06.939Z,62.12
2022-12-29T09:33:08.954Z,62.01
2022-12-29T09:38:13.080Z,62.33
2022-12-29T09:43:28.322Z,61.30
2022-12-29T09:48:34.479Z,61.20
2022-12-29T09:53:42.015Z,60.60
2022-12-29T09:58:48.608Z,61.00
2022-12-29T10:03:52.633Z,60.44
2022-12-29T10:09:02.929Z,58.52
2022-12-29T10:14:23.795Z,57.37
2022-12-29T10:19:47.380Z,57.18
2022-12-29T10:24:54.502Z,56.32
2022-12-29T10:29:58.902Z,55.64
2022-12-29T10:35:06.578Z,55.76
2022-12-29T10:40:19.624Z,57.34
2022-12-29T10:45:25.396Z,56.49
2022-12-29T10:50:30.022Z,55.62
2022-12-29T10:55:36.473Z,57.46
2022-12-29T11:00:38.817Z,57.84
2022-12-29T11:05:46.193Z,56.83
2022-12-29T11:10:59.462Z,56.38
2022-12-29T11:16:03.774Z,57.10
2022-12-29T11:21:07.971Z,56.32
2022-12-29T11:26:18.695Z,55.28
2022-12-29T11:31:22.912Z,54.85
2022-12-29T11:36:25.704Z,55.04
2022-12-29T11:41:30.935Z,55.02
2022-12-29T11:46:35.541Z,55.16
2022-12-29T11:51:44.088Z,55.91
2022-12-29T11:56:47.687Z,56.92
2022-12-29T12:01:49.854Z,55.58
2022-12-29T12:07:00.185Z,57.17
2022-12-29T12:12:06.312Z,55.88
2022-12-29T12:17:16.001Z,56.13
2022-12-29T12:22:27.854Z,55.92
2022-12-29T12:27:41.095Z,55.62
2022-12-29T12:32:47.593Z,55.67
2022-12-29T12:38:06.065Z,54.58
2022-12-29T12:43:26.388Z,55.80
2022-12-29T12:48:52.842Z,55.86
2022-12-29T12:54:10.746Z,56.60
2022-12-29T12:59:27.794Z,57.44
2022-12-29T13:04:49.431Z,59.46
2022-12-29T13:10:13.991Z,57.50
2022-12-29T13:15:30.149Z,56.56
2022-12-29T13:20:40.273Z,56.03
2022-12-29T13:25:49.084Z,59.08
2022-12-29T13:31:01.542Z,56.88
2022-12-29T13:36:07.838Z,54.98
2022-12-29T13:41:14.973Z,56.78
2022-12-29T13:46:24.571Z,54.28
2022-12-29T13:51:28.559Z,55.53
2022-12-29T13:56:39.877Z,56.08
2022-12-29T14:01:51.078Z,57.66
2022-12-29T14:07:03.105Z,57.11
2022-12-29T14:12:20.752Z,57.64
2022-12-29T14:17:24.287Z,60.56
2022-12-29T14:22:33.011Z,59.39
2022-12-29T14:28:03.142Z,60.70
2022-12-29T14:33:14.021Z,62.01
2022-12-29T14:38:29.204Z,62.45
2022-12-29T14:43:31.324Z,63.02
2022-12-29T14:48:39.218Z,63.56
2022-12-29T14:53:44.846Z,63.20
2022-12-29T14:58:53.381Z,63.32
2022-12-29T15:03:59.773Z,65.20
2022-12-29T15:09:07.242Z,62.58
2022-12-29T15:14:41.869Z,63.11
2022-12-29T15:19:45.205Z,63.33
2022-12-29T15:24:47.467Z,62.65
2022-12-29T15:29:57.651Z,61.96
2022-12-29T15:35:02.174Z,62.49
2022-12-29T15:40:05.173Z,62.82
2022-12-29T15:45:12.031Z,61.47
2022-12-29T15:50:24.904Z,61.37
2022-12-29T15:55:31.250Z,61.83
2022-12-29T16:00:35.037Z,60.87
2022-12-29T16:05:40.197Z,61.85
2022-12-29T16:10:44.091Z,60.99
2022-12-29T16:15:47.142Z,60.65
2022-12-29T16:20:50.777Z,60.43
2022-12-29T16:25:55.619Z,61.11
2022-12-29T16:31:04.408Z,60.91
2022-12-29T16:36:29.561Z,61.57
2022-12-29T16:41:32.579Z,61.03
2022-12-29T16:46:34.709Z,61.14
2022-12-29T16:51:38.359Z,61.45
2022-12-29T16:56:45.763Z,61.09
2022-12-29T17:01:47.955Z,61.76
2022-12-29T17:06:51.355Z,60.88
2022-12-29T17:12:00.515Z,61.94
2022-12-29T17:17:13.740Z,63.01
2022-12-29T17:22:19.611Z,62.58
2022-12-29T17:27:25.189Z,63.53
2022-12-29T17:32:27.267Z,63.43
2022-12-29T17:37:33.595Z,61.59
2022-12-29T17:42:40.108Z,61.63
2022-12-29T17:47:42.228Z,61.10
2022-12-29T17:52:49.888Z,61.54
2022-12-29T17:57:52.523Z,60.91
2022-12-29T18:02:55.018Z,61.72
2022-12-29T18:07:59.802Z,61.32
2022-12-29T18:13:03.019Z,61.65
2022-12-29T18:18:11.735Z,60.70
2022-12-29T18:23:19.657Z,59.53
2022-12-29T18:28:21.660Z,59.15
2022-12-29T18:33:26.390Z,60.10
2022-12-29T18:38:31.191Z,58.40
2022-12-29T18:43:33.144Z,58.65
2022-12-29T18:48:35.113Z,59.06
2022-12-29T18:53:38.486Z,58.59
2022-12-29T18:58:40.739Z,58.07
2022-12-29T19:03:42.766Z,57.50
2022-12-29T19:08:46.484Z,55.61
2022-12-29T19:13:48.581Z,56.33
2022-12-29T19:19:07.768Z,57.85
2022-12-29T19:24:12.694Z,57.25
2022-12-29T19:29:15.951Z,55.73
2022-12-29T19:34:19.034Z,56.98
2022-12-29T19:39:22.526Z,56.25
2022-12-29T19:44:24.376Z,56.64
2022-12-29T19:49:26.932Z,57.39
2022-12-29T19:54:30.276Z,57.41
2022-12-29T19:59:32.114Z,59.15
2022-12-29T20:04:34.135Z,59.32
2022-12-29T20:09:37.552Z,59.71
2022-12-29T20:14:39.721Z,59.46
2022-12-29T20:19:42.462Z,59.25
2022-12-29T20:24:50.037Z,60.54
2022-12-29T20:29:52.390Z,60.14
2022-12-29T20:34:54.476Z,61.25
2022-12-29T20:39:57.856Z,60.84
2022-12-29T20:45:01.618Z,60.33
2022-12-29T20:50:04.016Z,61.07
2022-12-29T20:55:07.873Z,61.04
2022-12-29T21:00:13.095Z,60.55
2022-12-29T21:05:25.987Z,61.06
2022-12-29T21:10:29.622Z,59.98
2022-12-29T21:15:31.934Z,59.93
2022-12-29T21:20:33.952Z,60.21
2022-12-29T21:25:43.147Z,60.02
2022-12-29T21:30:45.587Z,59.77
2022-12-29T21:35:48.451Z,60.40
2022-12-29T21:40:51.779Z,60.28
2022-12-29T21:45:53.803Z,60.81
2022-12-29T21:51:16.051Z,60.72
2022-12-29T21:56:20.128Z,60.09
2022-12-29T22:01:41.634Z,60.27
2022-12-29T22:07:02.252Z,59.95
2022-12-29T22:12:24.796Z,60.64
2022-12-29T22:17:29.008Z,61.12
2022-12-29T22:22:32.246Z,59.15
2022-12-29T22:27:35.735Z,60.20
2022-12-29T22:32:37.612Z,60.57
2022-12-29T22:37:43.333Z,60.54
2022-12-29T22:42:46.659Z,60.97
2022-12-29T22:47:48.689Z,59.77
2022-12-29T22:52:51.493Z,60.91
2022-12-29T22:57:54.786Z,60.55
2022-12-29T23:02:57.039Z,60.14
2022-12-29T23:08:00.208Z,60.65
2022-12-29T23:13:05.868Z,60.17
2022-12-29T23:18:07.889Z,61.62
2022-12-29T23:23:09.945Z,60.99
2022-12-29T23:28:13.283Z,62.02
2022-12-29T23:33:15.223Z,60.91
2022-12-29T23:38:17.263Z,60.74
2022-12-29T23:43:20.569Z,60.81
2022-12-29T23:48:22.660Z,60.96
2022-12-29T23:53:24.637Z,60.26
2022-12-29T23:58:29.433Z,61.05
